Terminal Aerodrome Forecast
Issued by NWS

Home | Current Version | Previous Version | Text Only | Print | Product List | Glossary On
Versions: 1 2 3 4 5 6 7 8 9 10 11 12 13 14 15
000
FTUS45 KSLC 190527
TAFEVW
TAF
KEVW 190527Z 1906/2006 35008KT P6SM SCT090 BKN120
     FM191900 25012G20KT P6SM VCSH SCT050 BKN090
     FM200300 19006KT P6SM SCT060 SCT120=

USA.gov is the U.S. government's official web portal to all federal, state and local government web resources and services.